createdAt,value
2019-05-10T00:01:54.267Z,60.41
2019-05-10T00:05:02.114Z,60.43
2019-05-10T00:08:09.945Z,60.44
2019-05-10T00:11:34.839Z,60.53
2019-05-10T00:14:44.337Z,60.66
2019-05-10T00:17:34.481Z,60.88
2019-05-10T00:20:24.602Z,60.95
2019-05-10T00:23:15.673Z,61.07
2019-05-10T00:26:05.889Z,61.07
2019-05-10T00:28:56.873Z,61.12
2019-05-10T00:31:46.486Z,61.13
2019-05-10T00:34:36.300Z,61.13
2019-05-10T00:37:26.495Z,61.15
2019-05-10T00:40:16.563Z,61.24
2019-05-10T00:43:07.746Z,61.21
2019-05-10T00:45:57.291Z,61.17
2019-05-10T00:48:47.787Z,61.21
2019-05-10T00:51:38.023Z,61.29
2019-05-10T00:54:28.248Z,61.21
2019-05-10T00:57:18.573Z,61.24
2019-05-10T01:00:09.060Z,61.27
2019-05-10T01:02:59.089Z,61.26
2019-05-10T01:05:49.046Z,61.24
2019-05-10T01:08:38.811Z,61.22
2019-05-10T01:11:29.111Z,61.26
2019-05-10T01:14:19.327Z,61.31
2019-05-10T01:17:09.381Z,61.31
2019-05-10T01:19:59.634Z,61.32
2019-05-10T01:22:49.926Z,61.27
2019-05-10T01:25:40.257Z,61.26
2019-05-10T01:28:30.348Z,61.25
2019-05-10T01:31:20.432Z,61.24
2019-05-10T01:34:10.427Z,61.22
2019-05-10T01:37:00.654Z,61.25
2019-05-10T01:39:50.421Z,61.22
2019-05-10T01:42:40.503Z,61.29
2019-05-10T01:45:30.593Z,61.29
2019-05-10T01:48:20.061Z,61.45
2019-05-10T01:51:09.900Z,61.59
2019-05-10T01:54:00.117Z,61.53
2019-05-10T01:56:49.900Z,61.49
2019-05-10T01:59:39.527Z,61.51
2019-05-10T02:02:29.558Z,61.55
2019-05-10T02:05:19.739Z,61.51
2019-05-10T02:08:09.917Z,61.59
2019-05-10T02:11:00.121Z,61.61
2019-05-10T02:13:50.026Z,61.60
2019-05-10T02:16:39.866Z,61.69
2019-05-10T02:19:29.979Z,61.69
2019-05-10T02:22:20.268Z,61.66
2019-05-10T02:25:11.840Z,61.74
2019-05-10T02:28:01.705Z,61.79
2019-05-10T02:30:51.740Z,61.71
2019-05-10T02:33:41.461Z,61.67
2019-05-10T02:36:31.430Z,61.64
2019-05-10T02:39:21.228Z,61.68
2019-05-10T02:42:11.309Z,61.60
2019-05-10T02:45:01.380Z,61.57
2019-05-10T02:47:50.861Z,61.58
2019-05-10T02:50:40.801Z,61.55
2019-05-10T02:53:30.302Z,61.48
2019-05-10T02:56:30.576Z,61.49
2019-05-10T02:59:15.327Z,61.45
2019-05-10T03:02:07.668Z,61.40
2019-05-10T03:05:00.591Z,61.42
2019-05-10T03:07:55.197Z,61.43
2019-05-10T03:10:58.960Z,61.46
2019-05-10T03:13:53.991Z,61.39
2019-05-10T03:16:48.964Z,61.35
2019-05-10T03:19:40.498Z,61.34
2019-05-10T03:22:33.587Z,61.49
2019-05-10T03:25:23.978Z,61.41
2019-05-10T03:28:13.957Z,61.50
2019-05-10T03:31:04.143Z,61.44
2019-05-10T03:33:57.168Z,61.37
2019-05-10T03:36:46.089Z,61.37
2019-05-10T03:39:35.829Z,61.36
2019-05-10T03:42:26.246Z,61.23
2019-05-10T03:45:16.526Z,61.31
2019-05-10T03:48:06.515Z,61.27
2019-05-10T03:50:55.981Z,61.25
2019-05-10T03:53:45.676Z,61.22
2019-05-10T03:56:35.360Z,61.18
2019-05-10T03:59:24.711Z,61.15
2019-05-10T04:02:14.806Z,61.11
2019-05-10T04:05:06.754Z,61.05
2019-05-10T04:07:56.723Z,61.04
2019-05-10T04:10:46.432Z,61.01
2019-05-10T04:13:37.273Z,61.02
2019-05-10T04:16:27.242Z,61.11
2019-05-10T04:19:16.999Z,61.11
2019-05-10T04:22:07.180Z,61.05
2019-05-10T04:24:56.915Z,61.01
2019-05-10T04:27:46.830Z,61.02
2019-05-10T04:30:37.140Z,60.98
2019-05-10T04:33:27.332Z,60.95
2019-05-10T04:36:18.365Z,60.97
2019-05-10T04:39:09.080Z,60.93
2019-05-10T04:41:58.383Z,60.92
2019-05-10T04:44:52.914Z,60.96
2019-05-10T04:47:40.446Z,60.96
2019-05-10T04:50:31.037Z,60.82
2019-05-10T04:53:20.818Z,60.70
2019-05-10T04:56:10.657Z,60.67
2019-05-10T04:59:00.874Z,60.65
2019-05-10T05:01:50.861Z,60.68
2019-05-10T05:04:41.022Z,60.60
2019-05-10T05:07:30.816Z,60.53
2019-05-10T05:10:20.838Z,60.52
2019-05-10T05:13:10.798Z,60.49
2019-05-10T05:16:00.638Z,60.40
2019-05-10T05:18:50.497Z,60.45
2019-05-10T05:21:40.507Z,60.45
2019-05-10T05:24:30.264Z,60.38
2019-05-10T05:27:20.523Z,60.39
2019-05-10T05:30:11.154Z,60.47
2019-05-10T05:33:00.877Z,60.41
2019-05-10T05:35:50.994Z,60.12
2019-05-10T05:38:47.292Z,59.96
2019-05-10T05:41:32.697Z,59.68
2019-05-10T05:44:26.047Z,59.65
2019-05-10T05:47:14.156Z,59.52
2019-05-10T05:50:04.566Z,59.21
2019-05-10T05:52:54.791Z,59.17
2019-05-10T05:55:44.657Z,59.10
2019-05-10T05:58:38.067Z,58.96
2019-05-10T06:01:29.547Z,58.94
2019-05-10T06:04:18.317Z,58.81
2019-05-10T06:07:08.117Z,58.80
2019-05-10T06:09:57.897Z,58.69
2019-05-10T06:12:50.500Z,58.63
2019-05-10T06:15:39.150Z,58.58
2019-05-10T06:18:29.070Z,58.52
2019-05-10T06:21:25.187Z,58.39
2019-05-10T06:24:13.486Z,58.34
2019-05-10T06:27:03.373Z,57.91
2019-05-10T06:29:54.224Z,57.94
2019-05-10T06:32:44.419Z,57.82
2019-05-10T06:35:34.401Z,57.79
2019-05-10T06:38:24.119Z,57.71
2019-05-10T06:41:17.106Z,57.46
2019-05-10T06:44:05.880Z,57.34
2019-05-10T06:46:55.801Z,57.04
2019-05-10T06:49:50.752Z,56.83
2019-05-10T06:52:37.368Z,56.77
2019-05-10T06:55:29.437Z,56.33
2019-05-10T06:58:19.273Z,55.90
2019-05-10T07:01:09.272Z,55.79
2019-05-10T07:03:59.223Z,55.68
2019-05-10T07:06:49.090Z,55.71
2019-05-10T07:10:01.768Z,55.48
2019-05-10T07:12:30.861Z,55.41
2019-05-10T07:15:20.799Z,55.27
2019-05-10T07:18:10.775Z,54.85
2019-05-10T07:21:06.512Z,54.75
2019-05-10T07:23:52.295Z,54.55
2019-05-10T07:26:42.194Z,54.54
2019-05-10T07:29:41.884Z,54.43
2019-05-10T07:32:24.602Z,54.50
2019-05-10T07:35:15.123Z,54.03
2019-05-10T07:38:05.325Z,53.71
2019-05-10T07:40:55.424Z,52.71
2019-05-10T07:43:48.012Z,52.30
2019-05-10T07:46:39.870Z,51.41
2019-05-10T07:49:30.376Z,51.11
2019-05-10T07:52:18.587Z,50.49
2019-05-10T07:55:10.565Z,50.50
2019-05-10T07:58:04.908Z,50.31
2019-05-10T08:00:55.802Z,50.30
2019-05-10T08:03:48.131Z,50.60
2019-05-10T08:06:43.433Z,50.49
2019-05-10T08:09:31.519Z,49.52
2019-05-10T08:12:19.681Z,48.87
2019-05-10T08:15:10.299Z,48.92
2019-05-10T08:18:00.179Z,48.53
2019-05-10T08:20:56.642Z,48.70
2019-05-10T08:23:43.768Z,48.66
2019-05-10T08:26:33.209Z,48.30
2019-05-10T08:29:23.303Z,47.90
2019-05-10T08:32:13.050Z,47.17
2019-05-10T08:35:05.386Z,46.71
2019-05-10T08:37:55.897Z,46.55
2019-05-10T08:40:46.168Z,46.03
2019-05-10T08:43:38.872Z,46.26
2019-05-10T08:46:37.040Z,46.50
2019-05-10T08:49:21.988Z,46.97
2019-05-10T08:52:12.183Z,46.50
2019-05-10T08:55:02.819Z,46.34
2019-05-10T08:57:53.337Z,45.96
2019-05-10T09:00:54.236Z,46.25
2019-05-10T09:03:34.283Z,45.78
2019-05-10T09:06:24.467Z,45.40
2019-05-10T09:09:14.874Z,45.73
2019-05-10T09:12:08.937Z,45.67
2019-05-10T09:15:05.675Z,45.17
2019-05-10T09:17:48.804Z,45.22
2019-05-10T09:20:38.575Z,44.78
2019-05-10T09:23:28.318Z,44.58
2019-05-10T09:26:18.251Z,44.19
2019-05-10T09:29:08.186Z,42.58
2019-05-10T09:32:01.045Z,42.40
2019-05-10T09:34:49.394Z,41.93
2019-05-10T09:37:38.845Z,41.72
2019-05-10T09:40:28.483Z,41.97
2019-05-10T09:43:21.334Z,42.12
2019-05-10T09:46:11.471Z,42.51
2019-05-10T09:49:09.929Z,42.67
2019-05-10T09:51:55.041Z,42.96
2019-05-10T09:54:49.210Z,42.90
2019-05-10T09:57:37.972Z,42.92
2019-05-10T10:00:37.958Z,42.88
2019-05-10T10:03:30.091Z,42.94
2019-05-10T10:06:19.704Z,42.99
2019-05-10T10:09:11.180Z,42.40
2019-05-10T10:12:03.248Z,41.88
2019-05-10T10:14:52.752Z,41.43
2019-05-10T10:17:43.050Z,41.65
2019-05-10T10:20:35.917Z,41.65
2019-05-10T10:23:30.634Z,41.84
2019-05-10T10:26:22.348Z,41.72
2019-05-10T10:29:10.104Z,41.84
2019-05-10T10:32:00.000Z,42.18
2019-05-10T10:34:54.379Z,42.14
2019-05-10T10:37:41.936Z,42.27
2019-05-10T10:40:35.488Z,42.06
2019-05-10T10:43:23.870Z,41.50
2019-05-10T10:46:16.675Z,41.28
2019-05-10T10:49:05.754Z,41.45
2019-05-10T10:51:57.383Z,41.76
2019-05-10T10:54:48.621Z,41.94
2019-05-10T10:57:38.760Z,42.04
2019-05-10T11:00:39.018Z,42.12
2019-05-10T11:03:30.322Z,42.54
2019-05-10T11:06:19.890Z,42.21
2019-05-10T11:09:10.255Z,42.35
2019-05-10T11:12:00.971Z,42.54
2019-05-10T11:14:51.140Z,42.21
2019-05-10T11:17:41.440Z,41.81
2019-05-10T11:20:32.032Z,41.77
2019-05-10T11:23:26.145Z,41.74
2019-05-10T11:26:13.669Z,41.51
2019-05-10T11:29:03.247Z,41.76
2019-05-10T11:32:11.165Z,41.46
2019-05-10T11:34:44.120Z,41.46
2019-05-10T11:37:36.339Z,41.72
2019-05-10T11:40:30.900Z,41.24
2019-05-10T11:43:22.651Z,41.31
2019-05-10T11:46:08.777Z,40.97
2019-05-10T11:48:58.617Z,40.92
2019-05-10T11:51:54.823Z,40.85
2019-05-10T11:54:41.701Z,40.87
2019-05-10T11:57:32.884Z,40.82
2019-05-10T12:00:31.433Z,40.64
2019-05-10T12:03:19.808Z,40.70
2019-05-10T12:06:09.193Z,40.40
2019-05-10T12:09:02.139Z,40.71
2019-05-10T12:14:46.132Z,40.77
2019-05-10T12:17:34.723Z,40.38
2019-05-10T12:20:38.990Z,40.39
2019-05-10T12:23:22.627Z,40.54
2019-05-10T12:26:27.366Z,40.59
2019-05-10T12:27:13.011Z,39.82
2019-05-10T12:29:11.525Z,39.18
2019-05-10T12:31:53.369Z,38.44
2019-05-10T12:34:46.063Z,38.39
2019-05-10T12:37:39.416Z,38.45
2019-05-10T12:40:27.147Z,38.41
2019-05-10T12:43:17.522Z,38.14
2019-05-10T12:46:07.304Z,37.65
2019-05-10T12:48:57.341Z,37.99
2019-05-10T12:51:47.460Z,37.92
2019-05-10T12:54:37.146Z,37.99
2019-05-10T12:57:26.902Z,38.54
2019-05-10T13:00:19.333Z,38.76
2019-05-10T13:03:12.889Z,38.71
2019-05-10T13:06:00.375Z,38.87
2019-05-10T13:08:50.397Z,39.43
2019-05-10T13:11:40.786Z,42.62
2019-05-10T13:14:31.128Z,44.45
2019-05-10T13:17:22.265Z,46.80
2019-05-10T13:20:12.613Z,48.87
2019-05-10T13:23:02.263Z,49.90
2019-05-10T13:25:52.351Z,50.95
2019-05-10T13:28:42.265Z,51.76
2019-05-10T13:31:32.145Z,53.36
2019-05-10T13:34:24.466Z,54.66
2019-05-10T13:37:23.160Z,55.55
2019-05-10T13:40:08.074Z,56.58
2019-05-10T13:42:57.814Z,57.48
2019-05-10T13:45:47.993Z,58.62
2019-05-10T13:48:38.310Z,59.82
2019-05-10T13:51:28.503Z,60.66
2019-05-10T13:54:18.212Z,61.57
2019-05-10T13:57:08.254Z,62.01
2019-05-10T14:00:01.842Z,61.86
2019-05-10T14:02:49.830Z,62.32
2019-05-10T14:05:40.162Z,62.40
2019-05-10T14:08:30.797Z,62.52
2019-05-10T14:11:20.640Z,62.57
2019-05-10T14:14:14.438Z,61.92
2019-05-10T14:17:02.471Z,62.13
2019-05-10T14:19:52.744Z,62.34
2019-05-10T14:22:48.371Z,62.30
2019-05-10T14:25:36.768Z,61.56
2019-05-10T14:28:26.947Z,62.21
2019-05-10T14:31:17.015Z,62.37
2019-05-10T14:34:15.762Z,62.76
2019-05-10T14:36:59.015Z,61.87
2019-05-10T14:39:48.775Z,62.31
2019-05-10T14:42:38.763Z,62.15
2019-05-10T14:45:28.906Z,62.01
2019-05-10T14:48:28.089Z,62.63
2019-05-10T14:51:13.600Z,62.90
2019-05-10T14:54:06.588Z,62.57
2019-05-10T14:56:55.253Z,62.34
2019-05-10T14:59:46.685Z,62.65
2019-05-10T15:02:36.495Z,62.84
2019-05-10T15:05:25.805Z,62.71
2019-05-10T15:08:15.588Z,62.85
2019-05-10T15:11:06.110Z,63.26
2019-05-10T15:13:56.392Z,62.90
2019-05-10T15:16:46.218Z,62.35
2019-05-10T15:19:35.990Z,62.01
2019-05-10T15:22:26.037Z,61.32
2019-05-10T15:25:16.207Z,61.21
2019-05-10T15:28:06.123Z,60.98
2019-05-10T15:30:55.841Z,60.40
2019-05-10T15:33:45.884Z,60.07
2019-05-10T15:36:35.883Z,59.42
2019-05-10T15:39:28.735Z,59.24
2019-05-10T15:42:17.408Z,58.96
2019-05-10T15:45:11.998Z,58.88
2019-05-10T15:48:02.926Z,58.03
2019-05-10T15:50:51.616Z,56.42
2019-05-10T15:53:41.191Z,57.50
2019-05-10T15:56:35.695Z,55.74
2019-05-10T15:59:22.858Z,55.66
2019-05-10T16:02:14.605Z,56.14
2019-05-10T16:05:22.969Z,56.08
2019-05-10T16:07:56.554Z,56.36
2019-05-10T16:10:46.320Z,56.35
2019-05-10T16:13:37.760Z,56.88
2019-05-10T16:16:37.259Z,56.68
2019-05-10T16:19:22.223Z,56.33
2019-05-10T16:22:12.625Z,56.96
2019-05-10T16:25:02.962Z,56.66
2019-05-10T16:27:52.901Z,56.54
2019-05-10T16:30:42.749Z,56.14
2019-05-10T16:33:32.867Z,56.23
2019-05-10T16:36:27.752Z,55.87
2019-05-10T16:39:14.771Z,55.94
2019-05-10T16:42:04.803Z,56.13
2019-05-10T16:44:54.566Z,56.07
2019-05-10T16:47:45.046Z,55.90
2019-05-10T16:50:35.367Z,55.76
2019-05-10T16:53:24.823Z,56.06
2019-05-10T16:56:19.058Z,56.21
2019-05-10T16:59:06.887Z,57.08
2019-05-10T17:02:03.376Z,57.10
2019-05-10T17:04:48.892Z,56.68
2019-05-10T17:07:38.598Z,57.03
2019-05-10T17:10:32.919Z,56.43
2019-05-10T17:13:20.382Z,56.28
2019-05-10T17:16:11.731Z,56.20
2019-05-10T17:19:02.271Z,55.18
2019-05-10T17:21:52.035Z,55.33
2019-05-10T17:24:41.659Z,55.51
2019-05-10T17:27:32.368Z,55.70
2019-05-10T17:30:27.759Z,55.94
2019-05-10T17:33:15.583Z,56.03
2019-05-10T17:36:08.438Z,56.22
2019-05-10T17:38:56.878Z,56.55
2019-05-10T17:41:46.668Z,56.71
2019-05-10T17:44:37.142Z,56.35
2019-05-10T17:47:27.106Z,56.61
2019-05-10T17:50:19.490Z,56.77
2019-05-10T17:53:09.718Z,57.34
2019-05-10T17:56:02.787Z,56.66
2019-05-10T17:58:51.150Z,56.86
2019-05-10T18:01:41.117Z,56.72
2019-05-10T18:04:30.698Z,56.75
2019-05-10T18:07:20.629Z,56.25
2019-05-10T18:10:10.995Z,57.01
2019-05-10T18:13:03.434Z,57.45
2019-05-10T18:15:53.428Z,57.69
2019-05-10T18:18:47.195Z,58.03
2019-05-10T18:21:35.490Z,58.35
2019-05-10T18:24:24.598Z,58.63
2019-05-10T18:27:14.999Z,58.71
2019-05-10T18:30:05.672Z,58.94
2019-05-10T18:32:54.973Z,58.94
2019-05-10T18:35:47.433Z,59.22
2019-05-10T18:38:39.338Z,59.46
2019-05-10T18:41:29.537Z,59.68
2019-05-10T18:44:19.730Z,59.77
2019-05-10T18:47:09.946Z,60.04
2019-05-10T18:50:00.131Z,60.22
2019-05-10T18:52:49.879Z,60.38
2019-05-10T18:55:41.166Z,60.47
2019-05-10T18:58:31.619Z,60.36
2019-05-10T19:01:21.935Z,60.23
2019-05-10T19:04:14.182Z,60.69
2019-05-10T19:07:09.866Z,60.93
2019-05-10T19:09:54.980Z,60.97
2019-05-10T19:12:45.060Z,61.38
2019-05-10T19:15:34.934Z,61.61
2019-05-10T19:18:25.485Z,61.74
2019-05-10T19:21:15.698Z,61.88
2019-05-10T19:24:05.864Z,62.02
2019-05-10T19:26:55.772Z,62.14
2019-05-10T19:29:47.852Z,62.32
2019-05-10T19:32:37.970Z,62.40
2019-05-10T19:35:29.922Z,62.58
2019-05-10T19:38:19.332Z,62.63
2019-05-10T19:41:09.592Z,62.78
2019-05-10T19:44:02.473Z,62.92
2019-05-10T19:46:51.056Z,63.05
2019-05-10T19:49:45.708Z,63.18
2019-05-10T19:52:32.561Z,63.36
2019-05-10T19:55:22.652Z,63.47
2019-05-10T19:58:12.802Z,63.59
2019-05-10T20:01:02.910Z,63.70
2019-05-10T20:03:53.256Z,63.79
2019-05-10T20:06:43.173Z,63.84
2019-05-10T20:09:33.323Z,63.94
2019-05-10T20:12:23.212Z,64.05
2019-05-10T20:15:13.194Z,64.17
2019-05-10T20:18:03.976Z,64.32
2019-05-10T20:20:53.968Z,64.35
2019-05-10T20:23:43.956Z,64.37
2019-05-10T20:26:34.169Z,64.37
2019-05-10T20:29:24.676Z,64.39
2019-05-10T20:32:14.761Z,64.43
2019-05-10T20:35:04.939Z,64.45
2019-05-10T20:38:01.981Z,64.49
2019-05-10T20:40:46.804Z,64.46
2019-05-10T20:43:36.690Z,64.46
2019-05-10T20:46:26.498Z,64.40
2019-05-10T20:49:16.705Z,64.36
2019-05-10T20:52:07.155Z,64.34
2019-05-10T20:54:57.985Z,64.45
2019-05-10T20:57:48.295Z,64.53
2019-05-10T21:00:38.689Z,64.59
2019-05-10T21:03:28.712Z,64.54
2019-05-10T21:06:18.630Z,64.64
2019-05-10T21:09:08.739Z,64.73
2019-05-10T21:11:58.727Z,64.72
2019-05-10T21:14:48.730Z,64.78
2019-05-10T21:17:38.395Z,64.74
2019-05-10T21:20:28.029Z,64.78
2019-05-10T21:23:18.402Z,64.73
2019-05-10T21:26:08.529Z,64.72
2019-05-10T21:28:58.327Z,64.79
2019-05-10T21:31:48.717Z,64.88
2019-05-10T21:34:38.804Z,64.92
2019-05-10T21:37:28.897Z,64.97
2019-05-10T21:40:18.555Z,65.00
2019-05-10T21:43:08.903Z,64.98
2019-05-10T21:45:58.871Z,64.96
2019-05-10T21:48:48.727Z,64.93
2019-05-10T21:51:39.303Z,64.92
2019-05-10T21:54:29.367Z,64.84
2019-05-10T21:57:19.302Z,64.82
2019-05-10T22:00:09.756Z,64.75
2019-05-10T22:03:01.425Z,64.72
2019-05-10T22:05:51.648Z,64.69
2019-05-10T22:08:49.519Z,64.68
2019-05-10T22:11:32.722Z,64.64
2019-05-10T22:14:22.764Z,64.59
2019-05-10T22:17:12.956Z,64.62
2019-05-10T22:20:02.735Z,64.65
2019-05-10T22:22:52.464Z,64.62
2019-05-10T22:25:42.506Z,64.62
2019-05-10T22:28:32.217Z,64.67
2019-05-10T22:31:21.961Z,64.72
2019-05-10T22:34:11.741Z,64.76
2019-05-10T22:37:01.316Z,64.78
2019-05-10T22:39:51.445Z,64.77
2019-05-10T22:42:41.215Z,64.78
2019-05-10T22:45:31.524Z,64.76
2019-05-10T22:48:21.596Z,64.76
2019-05-10T22:51:11.866Z,64.75
2019-05-10T22:54:01.929Z,64.76
2019-05-10T22:56:51.622Z,64.79
2019-05-10T22:59:41.438Z,64.82
2019-05-10T23:02:31.832Z,64.77
2019-05-10T23:05:22.018Z,64.79
2019-05-10T23:08:12.108Z,64.75
2019-05-10T23:11:02.666Z,64.71
2019-05-10T23:13:52.708Z,64.75
2019-05-10T23:16:43.477Z,64.71
2019-05-10T23:19:32.974Z,64.71
2019-05-10T23:22:22.494Z,64.77
2019-05-10T23:25:12.982Z,64.81
2019-05-10T23:28:02.627Z,64.73
2019-05-10T23:30:52.900Z,64.80
2019-05-10T23:33:43.029Z,64.78
2019-05-10T23:36:32.697Z,64.70
2019-05-10T23:39:22.969Z,64.63
2019-05-10T23:42:12.783Z,64.70
2019-05-10T23:45:02.382Z,64.72
2019-05-10T23:47:52.524Z,64.74
2019-05-10T23:50:42.472Z,64.70
2019-05-10T23:53:32.405Z,64.65
2019-05-10T23:56:23.193Z,64.70
2019-05-10T23:59:13.096Z,64.65
